Saturday, December 20, 2014
04:26 UTC
  |  Log In   |  Register Free
Airport Search:

Rwj Airpark Airport
(54T)

Rwj Airpark Airport Diagram
No Airport Diagram Available

FAA data valid effective November 13, 2014 - January 08, 2015 (unless otherwise noted).

 
 
 
 
 
 
 
 
 
 
 
 
 
 

Current Aviation Weather for Rwj Airpark Airport (54T)

METAR data is unavailable for 54T. The nearest METAR location is at KEFD (18.7 nm SW from 54T).

The most recent METAR observation for KEFD was updated at: 2113
METAR Summary (Translated METAR)
KEFD
182050Z 02004KT 5SM BR SCT012 OVC033 21/20 A3002
(18.7 nm SW from 54T)
KHOU
182053Z 02004KT 10SM FEW012 BKN032 BKN045 21/18 A3002 RMK AO2 SLP169 T02110178 56023
(23.6 nm SW from 54T)
TAF Summary (Translated TAF)
KEFD
1921/2102 01009KT 4800 -SHRA BKN007 QNH3000INS BECMG 2003/2004 01012KT 9999 NSW BKN010 QNH3004INS BECMG 2014/2015 01009KT 9999 BKN020 QNH3010INS TX14/2020Z TN10/2011Z AMD 192101
KHOU
(6.7 nm NW from KEFD)
200258Z 2003/2024 01012KT P6SM OVC007 FM201500 01008KT P6SM BKN015 OVC025 FM202200 02005KT P6SM BKN015 BKN025
  Airport Weather Conditions for 54T

Current weather conditions are
not available for 54T


The nearest NOAA weather station
is at EFD, (18.7 nm SW from 54T)
  
 Current Weather at EFD
54° F
Drizzle
North winds at 12.7 mph
EFD NOAA Radar

Pressure: 30.12 in
Humidity: 94%
Wind: North at 12.7 MPH (11 KT)
Dew Point: 51.8°F
Visibility: 5.00 mi


Airport Weather Forecast for 54T

Translated METAR and TAF for KEFD
Translated METAR for KEFD (0427 UTC 20 December 2014)
found at http://aviationweather.gov/adds/metars/
 
METAR text: KEFD 200350Z 35011KT 5SM DZ OVC006 12/11 A3012
Conditions at: KEFD (HOUSTON/ELLINGTO, TX, US) observed 0350 UTC 20 December 2014
Temperature: 12.0°C (54°F)
Dewpoint: 11.0°C (52°F) [RH = 94%]
Pressure (altimeter): 30.12 inches Hg (1020.1 mb)
Winds: from the N (350 degrees) at 13 MPH (11 knots; 5.7 m/s)
Visibility: 5 miles (8 km)
Ceiling: 600 feet AGL
Clouds: overcast cloud deck at 600 feet AGL
Weather: DZ  (drizzle)
Translated TAF for KEFD
Forecast for: KEFD (HOUSTON/ELLINGTO, TX, US)
TAF Text: TAF KEFD 2004/2110 01012KT 9000 BR OVC006 QNH3004INS
Forecast period: 0400 to 1400 UTC 20 December 2014
Forecast type: FROM: standard forecast or significant change
Winds: from the N (10 degrees) at 14 MPH (12 knots; 6.2 m/s)
Visibility: 6 miles (9 km)
Ceiling: 600 feet AGL
Clouds: overcast cloud deck at 600 feet AGL
Weather: BR  (mist)
TAF Text: BECMG 2014/2015 04006KT 9999 NSW BKN010 QNH3016INS
Forecast period: 1400 to 1800 UTC 20 December 2014
Forecast type: BECOMING: Conditions expected to become as follows by 1500 UTC 20 December 2014
Winds: from the NE (40 degrees) at 7 MPH (6 knots; 3.1 m/s)
Visibility: 6 or more miles (10+ km)
Ceiling: 1000 feet AGL
Clouds: broken clouds at 1000 feet AGL
Weather: NSW  (no significant weather)
TAF Text: BECMG 2018/2019 04008KT 9999 SCT015 QNH3014INS TX15/2021Z TN09/2012Z
Forecast period: 1800 UTC 20 December 2014 to 1000 UTC 21 December 2014
Forecast type: BECOMING: Conditions expected to become as follows by 1900 UTC 20 December 2014
Winds: from the NE (40 degrees) at 9 MPH (8 knots; 4.2 m/s)
Visibility: 6 or more miles (10+ km)
Clouds: scattered clouds at 1500 feet AGL
Weather: NSW  (no significant weather)

Find All Airport Services Find A Hotel Find A Rental Car Find A Golf Course Find A Restaurant $100 Hamburger



FBO's on the Field
FBO Company Facility Photos Services Transportation Aviation Fuel Prices: Prices include tax
Catering Weather Repair Courtesy Rental Type 100LL JetA JetA+ MOGAS 8087
 
Bay Area Aviation Inc

This FBO has not yet been rated
FS:Avfuel
Last Updated: Dec-02
Login to update fuel prices
SS:
Contact Bay Area Aviation IncMore FBO Information
 
Add another FBO Facility Photos Catering Weather Repair Courtesy Rental Type 100LL JetA JetA+ MOGAS 8087
Services Transportation Aviation Fuel Prices: Prices include tax


model-print
model-print
model-print
model-print